Time,TemperatureF,DewpointF,PressureIn,WindDirection,WindDirectionDegrees,WindSpeedMPH,WindSpeedGustMPH,Humidity,HourlyPrecipIn,Conditions,Clouds,dailyrainin,SoftwareType,DateUTC
2013-04-20 00:00:00,41.0,-99.9,-100.00,SE,127,6.0,10.0,-999,-99.99,,,-99.99,,2013-04-20 04:00:00,
2013-04-20 00:53:00,41.0,-99.9,-100.00,SE,127,6.0,10.0,-999,-99.99,,,-99.99,,2013-04-20 04:53:00,
2013-04-20 01:00:00,41.0,-99.9,-100.00,ESE,110,7.0,9.0,-999,-99.99,,,-99.99,,2013-04-20 05:00:00,
2013-04-20 01:52:00,41.0,-99.9,-100.00,ESE,110,7.0,9.0,-999,-99.99,,,-99.99,,2013-04-20 05:52:00,
2013-04-20 02:00:00,39.0,-99.9,-100.00,ENE,74,3.0,9.0,-999,-99.99,,,-99.99,,2013-04-20 06:00:00,
2013-04-20 02:52:00,39.0,-99.9,-100.00,ENE,74,3.0,9.0,-999,-99.99,,,-99.99,,2013-04-20 06:52:00,
2013-04-20 03:00:00,39.0,-99.9,-100.00,SSE,150,6.0,9.0,-999,-99.99,,,-99.99,,2013-04-20 07:00:00,
2013-04-20 03:52:00,39.0,-99.9,-100.00,SSE,150,6.0,9.0,-999,-99.99,,,-99.99,,2013-04-20 07:52:00,
2013-04-20 04:00:00,39.0,-99.9,-100.00,SE,135,6.0,12.0,-999,-99.99,,,-99.99,,2013-04-20 08:00:00,
2013-04-20 04:52:00,39.0,-99.9,-100.00,SE,135,6.0,12.0,-999,-99.99,,,-99.99,,2013-04-20 08:52:00,
2013-04-20 05:00:00,39.0,-99.9,-100.00,South,181,7.0,9.0,-999,-99.99,,,-99.99,,2013-04-20 09:00:00,
2013-04-20 05:53:00,39.0,-99.9,-100.00,South,181,7.0,9.0,-999,-99.99,,,-99.99,,2013-04-20 09:53:00,
2013-04-20 06:00:00,39.0,-99.9,-100.00,SSE,156,6.0,9.0,-999,-99.99,,,-99.99,,2013-04-20 10:00:00,
2013-04-20 06:53:00,39.0,-99.9,-100.00,SSE,156,6.0,9.0,-999,-99.99,,,-99.99,,2013-04-20 10:53:00,
2013-04-20 07:00:00,37.0,-99.9,-100.00,ESE,120,5.0,7.0,-999,-99.99,,,-99.99,,2013-04-20 11:00:00,
2013-04-20 07:53:00,37.0,-99.9,-100.00,ESE,120,5.0,7.0,-999,-99.99,,,-99.99,,2013-04-20 11:53:00,
2013-04-20 08:00:00,33.0,-99.9,-100.00,SE,126,5.0,6.0,-999,-99.99,,,-99.99,,2013-04-20 12:00:00,
2013-04-20 08:52:00,33.0,-99.9,-100.00,SE,126,5.0,6.0,-999,-99.99,,,-99.99,,2013-04-20 12:52:00,
2013-04-20 09:00:00,35.0,-99.9,-100.00,ESE,114,7.0,7.0,-999,-99.99,,,-99.99,,2013-04-20 13:00:00,
2013-04-20 09:52:00,35.0,-99.9,-100.00,ESE,114,7.0,7.0,-999,-99.99,,,-99.99,,2013-04-20 13:52:00,
2013-04-20 10:00:00,39.0,-99.9,-100.00,SSE,148,12.0,15.0,-999,-99.99,,,-99.99,,2013-04-20 14:00:00,
2013-04-20 10:52:00,39.0,-99.9,-100.00,SSE,148,12.0,15.0,-999,-99.99,,,-99.99,,2013-04-20 14:52:00,
2013-04-20 11:00:00,41.0,-99.9,-100.00,South,173,12.0,17.0,-999,-99.99,,,-99.99,,2013-04-20 15:00:00,
2013-04-20 11:53:00,41.0,-99.9,-100.00,South,173,12.0,17.0,-999,-99.99,,,-99.99,,2013-04-20 15:53:00,
2013-04-20 12:00:00,44.0,-99.9,-100.00,South,180,13.0,21.0,-999,-99.99,,,-99.99,,2013-04-20 16:00:00,
2013-04-20 12:53:00,44.0,-99.9,-100.00,South,180,13.0,21.0,-999,-99.99,,,-99.99,,2013-04-20 16:53:00,
2013-04-20 13:00:00,48.0,-99.9,-100.00,ESE,122,5.0,23.0,-999,-99.99,,,-99.99,,2013-04-20 17:00:00,
2013-04-20 13:52:00,48.0,-99.9,-100.00,ESE,122,5.0,23.0,-999,-99.99,,,-99.99,,2013-04-20 17:52:00,
2013-04-20 14:00:00,51.0,-99.9,-100.00,South,187,14.0,18.0,-999,-99.99,,,-99.99,,2013-04-20 18:00:00,
2013-04-20 14:53:00,51.0,-99.9,-100.00,South,187,14.0,18.0,-999,-99.99,,,-99.99,,2013-04-20 18:53:00,
2013-04-20 15:00:00,55.0,-99.9,-100.00,South,182,12.0,18.0,-999,-99.99,,,-99.99,,2013-04-20 19:00:00,
2013-04-20 15:52:00,55.0,-99.9,-100.00,South,182,12.0,18.0,-999,-99.99,,,-99.99,,2013-04-20 19:52:00,
2013-04-20 16:00:00,59.0,-99.9,-100.00,South,189,7.0,16.0,-999,-99.99,,,-99.99,,2013-04-20 20:00:00,
2013-04-20 16:52:00,59.0,-99.9,-100.00,South,189,7.0,16.0,-999,-99.99,,,-99.99,,2013-04-20 20:52:00,
2013-04-20 17:00:00,60.0,-99.9,-100.00,SSW,211,9.0,15.0,-999,-99.99,,,-99.99,,2013-04-20 21:00:00,
2013-04-20 17:53:00,60.0,-99.9,-100.00,SSW,211,9.0,15.0,-999,-99.99,,,-99.99,,2013-04-20 21:53:00,
2013-04-20 18:00:00,62.0,-99.9,-100.00,SSE,151,14.0,14.0,-999,-99.99,,,-99.99,,2013-04-20 22:00:00,
2013-04-20 18:53:00,62.0,-99.9,-100.00,SSE,151,14.0,14.0,-999,-99.99,,,-99.99,,2013-04-20 22:53:00,
2013-04-20 19:00:00,60.0,-99.9,-100.00,SE,137,10.0,15.0,-999,-99.99,,,-99.99,,2013-04-20 23:00:00,
2013-04-20 19:53:00,60.0,-99.9,-100.00,SE,137,10.0,15.0,-999,-99.99,,,-99.99,,2013-04-20 23:53:00,
2013-04-20 20:00:00,59.0,-99.9,-100.00,SSE,166,9.0,17.0,-999,-99.99,,,-99.99,,2013-04-21 00:00:00,
2013-04-20 20:52:00,59.0,-99.9,-100.00,SSE,166,9.0,17.0,-999,-99.99,,,-99.99,,2013-04-21 00:52:00,
2013-04-20 21:00:00,55.0,-99.9,-100.00,SSE,166,9.0,12.0,-999,-99.99,,,-99.99,,2013-04-21 01:00:00,
2013-04-20 21:52:00,55.0,-99.9,-100.00,SSE,166,9.0,12.0,-999,-99.99,,,-99.99,,2013-04-21 01:52:00,
2013-04-20 22:00:00,51.0,-99.9,-100.00,SSE,151,8.0,11.0,-999,-99.99,,,-99.99,,2013-04-21 02:00:00,
2013-04-20 22:52:00,51.0,-99.9,-100.00,SSE,151,8.0,11.0,-999,-99.99,,,-99.99,,2013-04-21 02:52:00,
2013-04-20 23:00:00,48.0,-99.9,-100.00,ESE,105,5.0,7.0,-999,-99.99,,,-99.99,,2013-04-21 03:00:00,
2013-04-20 23:53:00,48.0,-99.9,-100.00,ESE,105,5.0,7.0,-999,-99.99,,,-99.99,,2013-04-21 03:53:00,